createdAt,value
2019-05-17T00:00:08.402Z,31.85
2019-05-17T00:02:37.647Z,28.17
2019-05-17T00:05:07.814Z,27.30
2019-05-17T00:07:36.995Z,28.30
2019-05-17T00:10:07.022Z,28.67
2019-05-17T00:12:36.778Z,31.68
2019-05-17T00:15:08.542Z,26.25
2019-05-17T00:17:37.776Z,26.65
2019-05-17T00:20:09.642Z,25.85
2019-05-17T00:22:38.099Z,33.50
2019-05-17T00:25:10.169Z,30.15
2019-05-17T00:30:07.802Z,30.88
2019-05-17T00:32:36.872Z,32.38
2019-05-17T00:35:07.826Z,26.93
2019-05-17T00:37:37.291Z,24.35
2019-05-17T00:40:08.432Z,28.77
2019-05-17T00:42:37.390Z,28.85
2019-05-17T00:45:08.160Z,29.27
2019-05-17T00:47:37.510Z,28.83
2019-05-17T00:50:07.603Z,28.85
2019-05-17T00:52:37.162Z,22.13
2019-05-17T00:55:07.264Z,21.90
2019-05-17T00:57:36.967Z,22.30
2019-05-17T01:00:08.524Z,24.25
2019-05-17T01:02:37.395Z,22.02
2019-05-17T01:05:09.377Z,25.50
2019-05-17T01:10:08.678Z,23.22
2019-05-17T01:12:37.189Z,21.73
2019-05-17T01:15:08.323Z,23.18
2019-05-17T01:17:36.785Z,17.80
2019-05-17T01:20:09.282Z,18.65
2019-05-17T01:22:37.806Z,19.62
2019-05-17T01:25:10.566Z,17.50
2019-05-17T01:27:39.271Z,19.42
2019-05-17T01:30:08.975Z,15.58
2019-05-17T01:32:37.692Z,13.98
2019-05-17T01:35:07.443Z,18.25
2019-05-17T01:37:37.101Z,15.65
2019-05-17T01:40:07.827Z,15.88
2019-05-17T01:42:37.498Z,18.70
2019-05-17T01:45:07.744Z,16.20
2019-05-17T01:47:36.815Z,18.65
2019-05-17T01:50:10.215Z,17.12
2019-05-17T01:52:38.947Z,17.05
2019-05-17T01:55:08.321Z,16.65
2019-05-17T01:57:37.254Z,16.50
2019-05-17T02:00:10.235Z,13.10
2019-05-17T02:02:41.154Z,19.92
2019-05-17T02:05:10.724Z,16.48
2019-05-17T02:07:39.207Z,15.05
2019-05-17T02:10:08.581Z,13.22
2019-05-17T02:12:37.328Z,18.90
2019-05-17T02:15:10.232Z,15.25
2019-05-17T02:17:38.960Z,13.60
2019-05-17T02:20:09.221Z,18.00
2019-05-17T02:22:37.677Z,19.50
2019-05-17T02:25:09.174Z,17.77
2019-05-17T02:27:43.937Z,20.10
2019-05-17T02:30:13.635Z,18.43
2019-05-17T02:32:43.086Z,15.32
2019-05-17T02:35:14.340Z,18.80
2019-05-17T02:37:43.579Z,17.27
2019-05-17T02:40:14.404Z,19.50
2019-05-17T02:42:43.751Z,22.10
2019-05-17T02:45:13.514Z,17.80
2019-05-17T02:47:43.697Z,21.35
2019-05-17T02:50:13.997Z,14.35
2019-05-17T02:52:44.116Z,17.30
2019-05-17T02:55:13.554Z,20.40
2019-05-17T02:57:43.328Z,15.20
2019-05-17T03:00:14.040Z,18.50
2019-05-17T03:02:43.839Z,20.02
2019-05-17T03:05:14.382Z,18.98
2019-05-17T03:07:44.399Z,17.92
2019-05-17T03:10:23.995Z,21.62
2019-05-17T03:12:45.056Z,20.57
2019-05-17T03:15:14.715Z,22.77
2019-05-17T03:17:43.814Z,19.52
2019-05-17T03:20:13.902Z,19.98
2019-05-17T03:22:43.956Z,17.17
2019-05-17T03:25:14.338Z,18.40
2019-05-17T03:27:43.554Z,18.32
2019-05-17T03:30:17.270Z,17.52
2019-05-17T03:32:47.889Z,20.12
2019-05-17T03:35:17.675Z,21.50
2019-05-17T03:37:45.663Z,20.25
2019-05-17T03:40:35.203Z,24.77
2019-05-17T03:42:45.067Z,20.05
2019-05-17T03:45:14.310Z,19.98
2019-05-17T03:47:44.339Z,22.37
2019-05-17T03:50:14.006Z,20.15
2019-05-17T03:52:44.338Z,19.87
2019-05-17T03:55:13.919Z,25.65
2019-05-17T03:57:44.278Z,22.00
2019-05-17T04:00:14.115Z,21.00
2019-05-17T04:02:44.312Z,23.47
2019-05-17T04:05:13.445Z,21.77
2019-05-17T04:07:43.554Z,23.10
2019-05-17T04:10:15.070Z,25.10
2019-05-17T04:12:44.293Z,22.62
2019-05-17T04:15:14.125Z,24.60
2019-05-17T04:17:44.060Z,26.45
2019-05-17T04:20:14.051Z,23.85
2019-05-17T04:22:44.840Z,21.65
2019-05-17T04:25:14.354Z,24.82
2019-05-17T04:27:43.858Z,24.75
2019-05-17T04:30:13.709Z,30.70
2019-05-17T04:32:44.094Z,25.60
2019-05-17T04:35:13.506Z,23.27
2019-05-17T04:37:44.389Z,34.63
2019-05-17T04:40:14.463Z,29.25
2019-05-17T04:42:44.195Z,25.32
2019-05-17T04:45:13.865Z,27.73
2019-05-17T04:47:44.469Z,29.10
2019-05-17T04:50:13.822Z,31.15
2019-05-17T04:52:43.456Z,27.98
2019-05-17T04:55:13.824Z,24.30
2019-05-17T04:57:43.908Z,31.00
2019-05-17T05:00:13.915Z,34.35
2019-05-17T05:02:43.888Z,32.13
2019-05-17T05:05:14.606Z,24.18
2019-05-17T05:07:44.000Z,31.40
2019-05-17T05:10:13.995Z,28.00
2019-05-17T05:12:43.889Z,31.45
2019-05-17T05:15:13.949Z,26.40
2019-05-17T05:17:43.042Z,25.10
2019-05-17T05:20:13.590Z,27.13
2019-05-17T05:22:43.032Z,24.00
2019-05-17T05:25:12.720Z,23.75
2019-05-17T05:27:42.678Z,26.27
2019-05-17T05:30:12.703Z,27.02
2019-05-17T05:32:42.728Z,20.35
2019-05-17T05:35:12.652Z,21.00
2019-05-17T05:37:42.246Z,21.10
2019-05-17T05:40:12.681Z,20.88
2019-05-17T05:42:42.709Z,20.00
2019-05-17T05:45:13.137Z,21.93
2019-05-17T05:47:43.091Z,22.37
2019-05-17T05:50:13.268Z,19.12
2019-05-17T05:52:42.437Z,18.42
2019-05-17T05:55:12.459Z,19.87
2019-05-17T05:57:41.916Z,23.92
2019-05-17T06:00:13.223Z,21.55
2019-05-17T06:02:42.286Z,20.82
2019-05-17T06:05:14.861Z,21.62
2019-05-17T06:07:42.129Z,26.12
2019-05-17T06:10:12.872Z,22.37
2019-05-17T06:12:43.274Z,25.93
2019-05-17T06:15:13.306Z,21.93
2019-05-17T06:17:43.092Z,22.15
2019-05-17T06:20:12.369Z,24.30
2019-05-17T06:22:42.785Z,20.97
2019-05-17T06:25:15.134Z,21.02
2019-05-17T06:27:41.908Z,19.37
2019-05-17T06:30:12.859Z,19.95
2019-05-17T06:32:43.251Z,15.32
2019-05-17T06:35:13.420Z,16.07
2019-05-17T06:37:42.663Z,11.60
2019-05-17T06:40:13.127Z,13.43
2019-05-17T06:42:45.264Z,14.20
2019-05-17T06:45:12.579Z,14.00
2019-05-17T06:47:42.692Z,14.58
2019-05-17T06:50:14.241Z,14.60
2019-05-17T06:55:13.022Z,13.88
2019-05-17T06:57:43.193Z,13.62
2019-05-17T07:00:19.825Z,15.63
2019-05-17T07:02:42.904Z,12.23
2019-05-17T07:05:13.327Z,14.20
2019-05-17T07:07:42.361Z,13.43
2019-05-17T07:10:12.333Z,11.80
2019-05-17T07:12:54.868Z,12.90
2019-05-17T07:15:12.510Z,14.70
2019-05-17T07:17:40.921Z,11.85
2019-05-17T07:20:10.654Z,11.57
2019-05-17T07:22:40.862Z,14.05
2019-05-17T07:25:10.967Z,13.43
2019-05-17T07:27:44.912Z,11.53
2019-05-17T07:30:11.660Z,10.70
2019-05-17T07:32:40.754Z,12.13
2019-05-17T07:35:11.143Z,14.80
2019-05-17T07:37:40.384Z,11.65
2019-05-17T07:40:10.915Z,12.37
2019-05-17T07:42:39.854Z,14.30
2019-05-17T07:45:10.061Z,10.50
2019-05-17T07:47:40.470Z,12.05
2019-05-17T07:50:11.207Z,14.23
2019-05-17T07:52:40.076Z,13.10
2019-05-17T07:55:10.979Z,14.80
2019-05-17T07:57:41.081Z,12.33
2019-05-17T08:00:10.945Z,12.88
2019-05-17T08:02:40.067Z,12.78
2019-05-17T08:05:10.013Z,12.13
2019-05-17T08:07:40.551Z,12.55
2019-05-17T08:10:10.993Z,13.48
2019-05-17T08:12:40.568Z,12.28
2019-05-17T08:15:11.236Z,12.88
2019-05-17T08:17:40.120Z,10.15
2019-05-17T08:20:10.724Z,11.93
2019-05-17T08:22:40.026Z,10.95
2019-05-17T08:25:10.323Z,12.65
2019-05-17T08:27:40.489Z,11.28
2019-05-17T08:30:10.710Z,11.22
2019-05-17T08:32:40.270Z,11.15
2019-05-17T08:35:11.201Z,11.28
2019-05-17T08:37:42.275Z,10.18
2019-05-17T08:40:11.142Z,12.45
2019-05-17T08:42:40.747Z,12.00
2019-05-17T08:45:09.969Z,12.80
2019-05-17T08:47:39.613Z,12.70
2019-05-17T08:50:11.490Z,11.80
2019-05-17T08:52:40.272Z,10.72
2019-05-17T08:55:10.072Z,12.82
2019-05-17T08:57:40.249Z,10.90
2019-05-17T09:00:10.615Z,12.80
2019-05-17T09:02:40.795Z,12.07
2019-05-17T09:05:10.452Z,11.22
2019-05-17T09:07:40.211Z,10.72
2019-05-17T09:10:10.406Z,11.12
2019-05-17T09:12:41.055Z,11.80
2019-05-17T09:15:10.350Z,11.38
2019-05-17T09:17:39.624Z,13.03
2019-05-17T09:20:10.662Z,11.88
2019-05-17T09:22:39.745Z,11.50
2019-05-17T09:25:12.424Z,11.08
2019-05-17T09:27:40.128Z,11.08
2019-05-17T09:30:09.940Z,10.15
2019-05-17T09:32:40.352Z,13.00
2019-05-17T09:35:09.993Z,10.15
2019-05-17T09:37:41.554Z,10.68
2019-05-17T09:40:09.434Z,10.70
2019-05-17T09:42:40.728Z,12.25
2019-05-17T09:45:09.724Z,10.98
2019-05-17T09:47:39.831Z,10.78
2019-05-17T09:50:09.946Z,11.80
2019-05-17T09:52:40.715Z,11.05
2019-05-17T09:55:09.928Z,11.48
2019-05-17T09:57:40.865Z,11.50
2019-05-17T10:00:10.126Z,15.13
2019-05-17T10:02:40.123Z,10.88
2019-05-17T10:05:10.642Z,10.58
2019-05-17T10:07:40.363Z,11.25
2019-05-17T10:10:10.829Z,12.05
2019-05-17T10:12:40.544Z,13.75
2019-05-17T10:15:10.158Z,11.73
2019-05-17T10:17:38.895Z,10.55
2019-05-17T10:20:10.831Z,9.85
2019-05-17T10:22:40.141Z,10.50
2019-05-17T10:25:09.974Z,10.55
2019-05-17T10:27:40.675Z,11.60
2019-05-17T10:30:10.450Z,11.08
2019-05-17T10:32:40.882Z,12.23
2019-05-17T10:35:10.420Z,9.23
2019-05-17T10:37:40.800Z,9.50
2019-05-17T10:40:11.216Z,13.88
2019-05-17T10:42:40.046Z,11.05
2019-05-17T10:45:11.015Z,12.47
2019-05-17T10:47:40.014Z,10.58
2019-05-17T10:50:10.931Z,9.45
2019-05-17T10:52:40.865Z,9.38
2019-05-17T10:55:10.768Z,9.43
2019-05-17T10:57:39.513Z,10.50
2019-05-17T11:00:10.105Z,11.20
2019-05-17T11:02:38.749Z,9.98
2019-05-17T11:05:07.442Z,9.70
2019-05-17T11:07:35.900Z,12.50
2019-05-17T11:10:06.638Z,10.95
2019-05-17T11:12:35.253Z,9.95
2019-05-17T11:15:11.827Z,8.88
2019-05-17T11:17:37.079Z,11.40
2019-05-17T11:20:09.090Z,8.10
2019-05-17T11:22:37.676Z,12.55
2019-05-17T11:25:08.174Z,8.83
2019-05-17T11:27:36.629Z,9.15
2019-05-17T11:30:06.462Z,15.45
2019-05-17T11:32:34.964Z,26.80
2019-05-17T11:35:04.299Z,9.33
2019-05-17T11:37:32.726Z,9.93
2019-05-17T11:40:01.233Z,13.35
2019-05-17T11:42:29.690Z,12.63
2019-05-17T11:44:58.126Z,9.65
2019-05-17T11:47:26.545Z,8.58
2019-05-17T11:50:00.363Z,12.15
2019-05-17T11:52:28.791Z,10.25
2019-05-17T11:54:57.217Z,8.03
2019-05-17T11:57:25.693Z,10.80
2019-05-17T11:59:55.807Z,8.43
2019-05-17T12:02:24.233Z,6.78
2019-05-17T12:04:52.734Z,7.35
2019-05-17T12:07:21.164Z,8.23
2019-05-17T12:09:49.675Z,8.88
2019-05-17T12:12:18.093Z,7.85
2019-05-17T12:14:46.525Z,9.90
2019-05-17T12:17:15.007Z,8.05
2019-05-17T12:19:43.462Z,6.67
2019-05-17T12:22:11.918Z,8.40
2019-05-17T12:24:40.686Z,8.40
2019-05-17T12:27:09.117Z,7.53
2019-05-17T12:29:37.555Z,6.70
2019-05-17T12:32:06.130Z,7.33
2019-05-17T12:34:34.535Z,7.17
2019-05-17T12:37:02.987Z,8.05
2019-05-17T12:39:31.722Z,8.13
2019-05-17T12:42:00.283Z,8.50
2019-05-17T12:44:28.755Z,9.80
2019-05-17T12:46:57.615Z,8.28
2019-05-17T12:49:26.051Z,6.92
2019-05-17T12:51:54.524Z,6.35
2019-05-17T12:54:23.053Z,8.20
2019-05-17T12:56:51.484Z,6.37
2019-05-17T12:59:19.905Z,8.23
2019-05-17T13:01:48.373Z,8.23
2019-05-17T13:04:16.975Z,6.25
2019-05-17T13:06:45.654Z,5.97
2019-05-17T13:09:14.120Z,8.60
2019-05-17T13:11:42.611Z,9.95
2019-05-17T13:14:11.034Z,7.47
2019-05-17T13:16:39.507Z,9.23
2019-05-17T13:19:07.929Z,6.80
2019-05-17T13:21:36.375Z,6.47
2019-05-17T13:24:05.137Z,5.90
2019-05-17T13:26:33.589Z,6.05
2019-05-17T13:29:01.992Z,7.55
2019-05-17T13:31:30.654Z,5.33
2019-05-17T13:33:59.214Z,6.83
2019-05-17T13:36:27.595Z,6.12
2019-05-17T13:38:56.125Z,6.15
2019-05-17T13:41:24.759Z,7.12
2019-05-17T13:43:53.262Z,7.37
2019-05-17T13:46:32.665Z,7.22
2019-05-17T13:48:51.864Z,6.42
2019-05-17T13:51:20.367Z,8.03
2019-05-17T13:53:49.086Z,5.87
2019-05-17T13:56:17.510Z,6.72
2019-05-17T13:58:46.013Z,8.05
2019-05-17T14:01:14.604Z,7.62
2019-05-17T14:03:43.082Z,7.25
2019-05-17T14:06:11.661Z,11.30
2019-05-17T14:08:40.389Z,8.43
2019-05-17T14:11:08.898Z,7.20
2019-05-17T14:13:37.354Z,6.67
2019-05-17T14:16:06.236Z,6.80
2019-05-17T14:18:34.843Z,7.95
2019-05-17T14:21:03.255Z,6.97
2019-05-17T14:23:31.724Z,7.15
2019-05-17T14:26:00.273Z,7.47
2019-05-17T14:28:28.669Z,10.82
2019-05-17T14:30:57.332Z,6.72
2019-05-17T14:33:25.774Z,7.05
2019-05-17T14:35:54.255Z,7.12
2019-05-17T14:38:22.929Z,7.20
2019-05-17T14:41:08.533Z,6.72
2019-05-17T14:43:21.638Z,7.80
2019-05-17T14:45:50.126Z,7.87
2019-05-17T14:48:18.558Z,7.25
2019-05-17T14:50:47.296Z,9.40
2019-05-17T14:53:15.756Z,8.95
2019-05-17T14:55:44.246Z,7.90
2019-05-17T14:58:12.721Z,6.25
2019-05-17T15:00:41.998Z,7.53
2019-05-17T15:03:10.422Z,6.95
2019-05-17T15:05:38.864Z,6.80
2019-05-17T15:08:07.402Z,8.20
2019-05-17T15:10:36.076Z,9.23
2019-05-17T15:13:04.509Z,13.72
2019-05-17T15:15:32.952Z,9.10
2019-05-17T15:18:01.387Z,8.40
2019-05-17T15:20:29.813Z,7.70
2019-05-17T15:22:58.290Z,7.60
2019-05-17T15:25:26.751Z,7.00
2019-05-17T15:27:55.174Z,8.18
2019-05-17T15:30:23.735Z,8.58
2019-05-17T15:32:52.379Z,7.95
2019-05-17T15:35:20.801Z,6.90
2019-05-17T15:37:49.383Z,7.75
2019-05-17T15:40:17.843Z,7.72
2019-05-17T15:42:46.449Z,6.53
2019-05-17T15:45:16.194Z,8.18
2019-05-17T15:47:44.821Z,7.35
2019-05-17T15:50:14.297Z,7.97
2019-05-17T15:52:42.935Z,6.05
2019-05-17T15:55:12.061Z,6.37
2019-05-17T15:57:40.502Z,6.80
2019-05-17T16:00:09.772Z,8.20
2019-05-17T16:02:38.261Z,9.08
2019-05-17T16:05:07.585Z,9.58
2019-05-17T16:07:36.195Z,6.05
2019-05-17T16:10:09.453Z,6.65
2019-05-17T16:12:38.215Z,6.25
2019-05-17T16:15:09.125Z,8.88
2019-05-17T16:17:37.575Z,7.80
2019-05-17T16:20:06.448Z,7.42
2019-05-17T16:22:34.955Z,6.65
2019-05-17T16:25:04.547Z,7.45
2019-05-17T16:27:32.977Z,7.30
2019-05-17T16:30:01.534Z,6.83
2019-05-17T16:32:30.190Z,8.50
2019-05-17T16:34:58.633Z,7.10
2019-05-17T16:37:27.183Z,7.35
2019-05-17T16:39:55.713Z,9.98
2019-05-17T16:42:24.153Z,10.28
2019-05-17T16:44:53.433Z,8.05
2019-05-17T16:47:21.855Z,8.18
2019-05-17T16:49:50.420Z,10.40
2019-05-17T16:52:19.500Z,11.75
2019-05-17T16:54:47.913Z,9.10
2019-05-17T16:57:16.335Z,8.20
2019-05-17T16:59:44.838Z,9.48
2019-05-17T17:02:14.219Z,9.60
2019-05-17T17:04:42.706Z,8.85
2019-05-17T17:07:11.643Z,8.83
2019-05-17T17:09:43.156Z,9.28
2019-05-17T17:12:12.180Z,9.35
2019-05-17T17:14:42.415Z,7.53
2019-05-17T17:17:13.058Z,9.43
2019-05-17T17:19:44.515Z,9.35
2019-05-17T17:22:14.288Z,10.17
2019-05-17T17:24:43.590Z,8.70
2019-05-17T17:27:12.687Z,10.78
2019-05-17T17:29:41.993Z,9.68
2019-05-17T17:32:21.177Z,9.88
2019-05-17T17:34:41.178Z,10.90
2019-05-17T17:37:10.159Z,10.10
2019-05-17T17:39:39.863Z,9.93
2019-05-17T17:42:08.951Z,9.95
2019-05-17T17:44:37.687Z,8.43
2019-05-17T17:47:08.131Z,10.60
2019-05-17T17:49:38.340Z,9.25
2019-05-17T17:52:08.829Z,8.63
2019-05-17T17:54:39.018Z,9.93
2019-05-17T17:57:08.474Z,9.10
2019-05-17T17:59:40.035Z,10.08
2019-05-17T18:02:11.644Z,9.60
2019-05-17T18:04:40.813Z,9.43
2019-05-17T18:07:10.029Z,9.70
2019-05-17T18:09:38.841Z,7.97
2019-05-17T18:12:11.155Z,10.58
2019-05-17T18:14:41.403Z,9.98
2019-05-17T18:17:10.699Z,9.63
2019-05-17T18:19:39.941Z,11.78
2019-05-17T18:22:09.226Z,9.78
2019-05-17T18:24:39.915Z,11.78
2019-05-17T18:27:08.949Z,14.73
2019-05-17T18:29:37.719Z,13.62
2019-05-17T18:32:06.867Z,13.68
2019-05-17T18:34:41.766Z,13.10
2019-05-17T18:37:13.283Z,16.07
2019-05-17T18:39:42.564Z,12.82
2019-05-17T18:42:11.392Z,17.82
2019-05-17T18:44:40.417Z,17.42
2019-05-17T18:47:11.327Z,16.23
2019-05-17T18:49:40.263Z,18.17
2019-05-17T18:52:09.537Z,16.48
2019-05-17T18:54:38.418Z,18.85
2019-05-17T18:57:07.835Z,22.30
2019-05-17T18:59:37.813Z,16.82
2019-05-17T19:02:06.504Z,17.82
2019-05-17T19:04:36.109Z,19.40
2019-05-17T19:07:05.205Z,19.20
2019-05-17T19:09:34.035Z,19.92
2019-05-17T19:12:02.584Z,20.08
2019-05-17T19:14:42.425Z,23.35
2019-05-17T19:17:01.569Z,20.12
2019-05-17T19:19:30.324Z,20.05
2019-05-17T19:21:59.181Z,21.85
2019-05-17T19:24:28.972Z,19.45
2019-05-17T19:26:58.236Z,23.65
2019-05-17T19:29:27.910Z,22.17
2019-05-17T19:31:57.013Z,20.60
2019-05-17T19:34:26.547Z,22.20
2019-05-17T19:36:55.896Z,25.15
2019-05-17T19:39:25.250Z,21.55
2019-05-17T19:41:54.641Z,22.60
2019-05-17T19:44:24.333Z,22.37
2019-05-17T19:46:53.337Z,23.38
2019-05-17T19:49:23.650Z,23.65
2019-05-17T19:51:52.903Z,24.30
2019-05-17T19:54:22.463Z,21.90
2019-05-17T19:56:53.299Z,25.00
2019-05-17T19:59:22.643Z,22.05
2019-05-17T20:01:55.605Z,24.60
2019-05-17T20:04:25.456Z,23.15
2019-05-17T20:06:54.834Z,22.07
2019-05-17T20:09:25.993Z,23.42
2019-05-17T20:11:57.198Z,23.73
2019-05-17T20:14:28.734Z,22.53
2019-05-17T20:16:58.765Z,26.35
2019-05-17T20:19:28.046Z,25.68
2019-05-17T20:21:58.755Z,23.42
2019-05-17T20:24:28.687Z,23.67
2019-05-17T20:26:57.778Z,24.15
2019-05-17T20:29:29.831Z,23.05
2019-05-17T20:31:59.839Z,27.90
2019-05-17T20:34:29.610Z,23.57
2019-05-17T20:37:00.279Z,25.40
2019-05-17T20:39:30.112Z,25.62
2019-05-17T20:41:59.408Z,25.30
2019-05-17T20:44:28.832Z,24.80
2019-05-17T20:46:59.987Z,26.25
2019-05-17T20:49:28.923Z,28.45
2019-05-17T20:51:57.732Z,28.65
2019-05-17T20:54:26.490Z,30.65
2019-05-17T20:56:55.087Z,27.73
2019-05-17T20:59:24.018Z,27.40
2019-05-17T21:01:52.648Z,29.77
2019-05-17T21:04:21.116Z,33.02
2019-05-17T21:06:49.658Z,32.03
2019-05-17T21:09:18.084Z,31.50
2019-05-17T21:11:46.988Z,29.75
2019-05-17T21:14:15.713Z,31.37
2019-05-17T21:16:44.154Z,30.77
2019-05-17T21:19:12.588Z,31.85
2019-05-17T21:21:41.143Z,34.85
2019-05-17T21:24:09.576Z,34.95
2019-05-17T21:26:38.010Z,32.80
2019-05-17T21:29:06.602Z,36.88
2019-05-17T21:31:35.230Z,36.38
2019-05-17T21:34:03.721Z,35.50
2019-05-17T21:36:32.247Z,34.70
2019-05-17T21:39:00.674Z,33.88
2019-05-17T21:41:29.195Z,34.48
2019-05-17T21:43:57.690Z,36.88
2019-05-17T21:46:26.114Z,36.33
2019-05-17T21:48:54.550Z,35.63
2019-05-17T21:51:23.339Z,35.38
2019-05-17T21:53:51.987Z,37.73
2019-05-17T21:56:20.411Z,35.90
2019-05-17T21:58:48.898Z,37.98
2019-05-17T22:01:20.918Z,38.85
2019-05-17T22:06:17.700Z,38.70
2019-05-17T22:08:46.267Z,41.37
2019-05-17T22:11:14.873Z,40.30
2019-05-17T22:13:43.620Z,37.63
2019-05-17T22:16:19.723Z,40.88
2019-05-17T22:18:46.273Z,43.08
2019-05-17T22:21:15.789Z,39.55
2019-05-17T22:23:44.480Z,39.60
2019-05-17T22:26:15.098Z,44.48
2019-05-17T22:28:44.300Z,44.88
2019-05-17T22:31:13.635Z,42.60
2019-05-17T22:33:43.216Z,42.85
2019-05-17T22:36:12.927Z,44.25
2019-05-17T22:38:41.806Z,44.48
2019-05-17T22:41:10.611Z,44.80
2019-05-17T22:43:40.120Z,41.73
2019-05-17T22:46:10.492Z,45.33
2019-05-17T22:48:40.338Z,43.58
2019-05-17T22:51:09.432Z,43.10
2019-05-17T22:53:38.551Z,43.13
2019-05-17T22:56:07.625Z,47.53
2019-05-17T22:58:36.702Z,46.73
2019-05-17T23:01:05.138Z,46.40
2019-05-17T23:03:33.565Z,39.83
2019-05-17T23:06:02.198Z,50.15
2019-05-17T23:08:30.676Z,44.67
2019-05-17T23:10:59.053Z,47.67
2019-05-17T23:13:27.585Z,46.92
2019-05-17T23:16:03.013Z,47.13
2019-05-17T23:18:33.102Z,46.68
2019-05-17T23:21:01.913Z,50.38
2019-05-17T23:23:30.734Z,52.93
2019-05-17T23:25:59.322Z,54.58
2019-05-17T23:28:27.755Z,55.23
2019-05-17T23:30:56.196Z,60.85
2019-05-17T23:33:24.726Z,60.63
2019-05-17T23:35:53.238Z,61.23
2019-05-17T23:38:21.662Z,62.15
2019-05-17T23:40:50.964Z,60.17
2019-05-17T23:43:21.729Z,66.67
2019-05-17T23:45:50.514Z,67.00
2019-05-17T23:48:19.634Z,70.55
2019-05-17T23:50:48.052Z,72.72
2019-05-17T23:53:16.643Z,67.58
2019-05-17T23:55:45.106Z,72.87
2019-05-17T23:58:13.536Z,68.70
